Time;durP1;ratioP1;P1;durP2;ratioP2;P2;SDS_P1;SDS_P2;PMS_P1;PMS_P2;Temp;Humidity;BMP_temperature;BMP_pressure;BME280_temperature;BME280_humidity;BME280_pressure;Samples;Min_cycle;Max_cycle;Signal;HPM_P1;HPM_P2
2023/06/16 00:00:32;;;;;;;;;11.00;10.50;;;;;-143.57;100.00;65101.44;5099046;27;45300;-46
2023/06/16 00:02:57;;;;;;;;;11.20;11.20;;;;;-143.57;100.00;65101.44;5098155;27;46962;-44
2023/06/16 00:05:23;;;;;;;;;9.00;8.00;;;;;-143.57;100.00;65101.44;5098460;27;45212;-44
2023/06/16 00:07:49;;;;;;;;;10.50;10.25;;;;;-143.57;100.00;65101.44;5098592;27;45524;-46
2023/06/16 00:10:14;;;;;;;;;11.75;9.75;;;;;-143.57;100.00;65101.44;5098559;27;45392;-44
2023/06/16 00:12:41;;;;;;;;;12.50;11.25;;;;;-143.57;100.00;65101.44;5097934;27;47085;-45
2023/06/16 00:15:08;;;;;;;;;10.20;8.80;;;;;-143.57;100.00;65101.44;5098190;27;45617;-47
2023/06/16 00:17:36;;;;;;;;;11.60;10.20;;;;;-143.57;100.00;65101.44;5098639;27;45217;-43
2023/06/16 00:20:03;;;;;;;;;11.20;10.40;;;;;-143.57;100.00;65101.44;5080041;27;45583;-44
2023/06/16 00:22:28;;;;;;;;;14.00;10.00;;;;;-143.57;100.00;65101.44;5079541;27;47267;-44
2023/06/16 00:24:53;;;;;;;;;12.50;11.50;;;;;-143.57;100.00;65101.44;5097868;27;45379;-46
2023/06/16 00:27:25;;;;;;;;;13.25;11.75;;;;;-143.57;100.00;65101.44;5097727;27;45439;-43
2023/06/16 00:29:50;;;;;;;;;11.75;11.75;;;;;-143.57;100.00;65101.44;5096698;27;45412;-46
2023/06/16 00:32:16;;;;;;;;;10.00;10.00;;;;;-143.57;100.00;65101.44;5097935;27;46259;-47
2023/06/16 00:34:42;;;;;;;;;10.75;9.00;;;;;-143.57;100.00;65101.44;5098017;27;45677;-45
2023/06/16 00:37:07;;;;;;;;;11.50;9.00;;;;;-143.57;100.00;65101.44;5098118;27;45204;-43
2023/06/16 00:39:32;;;;;;;;;9.75;9.25;;;;;-143.57;100.00;65101.44;5098485;27;45847;-45
2023/06/16 00:41:58;;;;;;;;;13.00;10.75;;;;;-143.57;100.00;65101.44;5097869;27;46050;-43
2023/06/16 00:44:23;;;;;;;;;10.00;7.75;;;;;-143.57;100.00;65101.44;5079777;27;45514;-47
2023/06/16 00:46:49;;;;;;;;;10.50;10.00;;;;;-143.57;100.00;65101.44;5097975;27;45270;-46
2023/06/16 00:49:15;;;;;;;;;10.75;10.75;;;;;-143.57;100.00;65101.44;5098174;27;46144;-47
2023/06/16 00:51:40;;;;;;;;;10.25;9.75;;;;;-143.57;100.00;65101.44;5097662;27;46106;-47
2023/06/16 00:54:07;;;;;;;;;12.25;12.25;;;;;-143.57;100.00;65101.44;5097744;27;45310;-44
2023/06/16 00:56:33;;;;;;;;;9.80;9.80;;;;;-143.57;100.00;65101.44;5097824;27;45484;-45
2023/06/16 00:58:59;;;;;;;;;12.60;10.00;;;;;-143.57;100.00;65101.44;5097774;27;45709;-46
2023/06/16 01:01:26;;;;;;;;;13.00;11.00;;;;;-143.57;100.00;65101.44;5097591;27;46284;-44
2023/06/16 01:03:53;;;;;;;;;12.40;11.60;;;;;-143.57;100.00;65101.44;5097476;27;45315;-45
2023/06/16 01:06:37;;;;;;;;;9.40;9.40;;;;;-143.57;100.00;65101.44;5095779;27;45632;-46
2023/06/16 01:09:28;;;;;;;;;12.75;11.25;;;;;-143.57;100.00;65101.44;5096534;27;45368;-44
2023/06/16 01:12:08;;;;;;;;;11.60;10.40;;;;;-143.57;100.00;65101.44;5093214;27;45426;-45
2023/06/16 01:14:51;;;;;;;;;13.00;11.80;;;;;-143.57;100.00;65101.44;5095174;27;45895;-44
2023/06/16 01:17:21;;;;;;;;;16.00;12.60;;;;;-143.57;100.00;65101.44;5097762;27;45290;-43
2023/06/16 01:19:57;;;;;;;;;11.40;11.00;;;;;-143.57;100.00;65101.44;5097603;27;45539;-42
2023/06/16 01:22:54;;;;;;;;;10.20;9.60;;;;;-143.57;100.00;65101.44;5097156;27;46218;-46
2023/06/16 01:25:22;;;;;;;;;11.60;10.80;;;;;-143.57;100.00;65101.44;5097476;27;45306;-46
2023/06/16 01:27:51;;;;;;;;;11.20;11.20;;;;;-143.57;100.00;65101.44;5097301;27;45395;-46
2023/06/16 01:30:19;;;;;;;;;13.00;11.50;;;;;-143.57;100.00;65101.44;5097498;27;45457;-44
2023/06/16 01:32:48;;;;;;;;;14.40;11.80;;;;;-143.57;100.00;65101.44;5096803;27;46364;-46
2023/06/16 01:35:16;;;;;;;;;13.60;10.20;;;;;-143.57;100.00;65101.44;5097204;27;45483;-44
2023/06/16 01:37:43;;;;;;;;;11.00;9.00;;;;;-143.57;100.00;65101.44;5100373;27;45437;-46
2023/06/16 01:40:10;;;;;;;;;10.50;10.25;;;;;-143.57;100.00;65101.44;5101019;27;45419;-45
2023/06/16 01:42:36;;;;;;;;;13.00;11.50;;;;;-143.57;100.00;65101.44;5100575;27;45430;-47
2023/06/16 01:45:03;;;;;;;;;12.40;10.20;;;;;-143.57;100.00;65101.44;5100434;27;45535;-44
2023/06/16 01:47:29;;;;;;;;;15.40;12.40;;;;;-143.57;100.00;65101.44;5100605;27;45267;-45
2023/06/16 01:49:56;;;;;;;;;12.75;11.50;;;;;-143.57;100.00;65101.44;5101072;27;45287;-46
2023/06/16 01:52:21;;;;;;;;;12.50;11.25;;;;;-143.57;100.00;65101.44;5098890;27;46026;-47
2023/06/16 01:54:47;;;;;;;;;11.00;11.00;;;;;-143.57;100.00;65101.44;5082233;27;45389;-43
2023/06/16 01:57:12;;;;;;;;;11.50;11.25;;;;;-143.57;100.00;65101.44;5100693;27;45460;-47
2023/06/16 01:59:38;;;;;;;;;13.25;12.00;;;;;-143.57;100.00;65101.44;5100595;27;45533;-46
2023/06/16 02:02:09;;;;;;;;;12.25;10.25;;;;;-143.57;100.00;65101.44;5100596;27;46155;-45
2023/06/16 02:04:39;;;;;;;;;13.20;12.80;;;;;-143.57;100.00;65101.44;5100473;27;45441;-44
2023/06/16 02:07:12;;;;;;;;;13.60;11.20;;;;;-143.57;100.00;65101.44;5100339;27;45246;-46
2023/06/16 02:09:41;;;;;;;;;11.25;11.25;;;;;-143.57;100.00;65101.44;5100713;27;45342;-45
2023/06/16 02:12:11;;;;;;;;;12.60;11.20;;;;;-143.57;100.00;65101.44;5100214;27;45488;-43
2023/06/16 02:14:37;;;;;;;;;12.40;12.40;;;;;-143.57;100.00;65101.44;5098664;27;45334;-45
2023/06/16 02:17:08;;;;;;;;;11.00;10.25;;;;;-143.57;100.00;65101.44;5100605;27;45338;-45
2023/06/16 02:19:33;;;;;;;;;9.75;9.25;;;;;-143.57;100.00;65101.44;5100872;27;45375;-46
2023/06/16 02:22:00;;;;;;;;;11.00;10.00;;;;;-143.57;100.00;65101.44;5100218;27;47067;-49
2023/06/16 02:24:25;;;;;;;;;12.00;10.00;;;;;-143.57;100.00;65101.44;5100235;27;45501;-45
2023/06/16 02:26:51;;;;;;;;;12.75;10.75;;;;;-143.57;100.00;65101.44;5100155;27;45296;-46
2023/06/16 02:29:16;;;;;;;;;14.00;10.50;;;;;-143.57;100.00;65101.44;5100130;27;45303;-45
2023/06/16 02:31:49;;;;;;;;;10.25;10.00;;;;;-143.57;100.00;65101.44;5098705;27;45899;-44
2023/06/16 02:34:15;;;;;;;;;11.40;9.80;;;;;-143.57;100.00;65101.44;5097985;27;45490;-45
2023/06/16 02:36:40;;;;;;;;;10.50;9.00;;;;;-143.57;100.00;65101.44;5098568;27;45432;-47
2023/06/16 02:39:07;;;;;;;;;10.25;10.25;;;;;-143.57;100.00;65101.44;5082157;27;45467;-45
2023/06/16 02:41:33;;;;;;;;;15.50;11.50;;;;;-143.57;100.00;65101.44;5099667;27;47063;-44
2023/06/16 02:43:58;;;;;;;;;11.40;10.00;;;;;-143.57;100.00;65101.44;5099707;27;45318;-46
2023/06/16 02:46:24;;;;;;;;;12.50;11.00;;;;;-143.57;100.00;65101.44;5099710;27;45496;-47
2023/06/16 02:48:49;;;;;;;;;11.00;11.00;;;;;-143.57;100.00;65101.44;5100181;27;45236;-45
2023/06/16 02:51:14;;;;;;;;;11.50;10.75;;;;;-143.57;100.00;65101.44;5099538;27;45465;-47
2023/06/16 02:53:41;;;;;;;;;12.50;12.25;;;;;-143.57;100.00;65101.44;5099659;27;45295;-47
2023/06/16 02:56:07;;;;;;;;;12.20;11.60;;;;;-143.57;100.00;65101.44;5099902;27;45317;-44
2023/06/16 02:58:32;;;;;;;;;13.25;10.25;;;;;-143.57;100.00;65101.44;5099931;27;45316;-44
2023/06/16 03:00:57;;;;;;;;;12.00;11.25;;;;;-143.57;100.00;65101.44;5099458;27;45323;-45
2023/06/16 03:03:25;;;;;;;;;11.25;11.25;;;;;-143.57;100.00;65101.44;5099446;27;45342;-46
2023/06/16 03:05:50;;;;;;;;;11.00;11.00;;;;;-143.57;100.00;65101.44;5099658;27;45427;-44
2023/06/16 03:08:16;;;;;;;;;14.75;11.75;;;;;-143.57;100.00;65101.44;5099875;27;45422;-44
2023/06/16 03:10:41;;;;;;;;;11.00;11.00;;;;;-143.57;100.00;65101.44;5098148;27;46690;-45
2023/06/16 03:13:07;;;;;;;;;10.50;10.50;;;;;-143.57;100.00;65101.44;5099368;27;45413;-46
2023/06/16 03:15:32;;;;;;;;;13.50;12.75;;;;;-143.57;100.00;65101.44;5099430;27;45314;-48
2023/06/16 03:17:57;;;;;;;;;12.00;12.00;;;;;-143.57;100.00;65101.44;5099604;27;45303;-44
2023/06/16 03:20:23;;;;;;;;;8.00;8.00;;;;;-143.57;100.00;65101.44;5099210;27;45894;-46
2023/06/16 03:22:48;;;;;;;;;11.00;11.00;;;;;-143.57;100.00;65101.44;5099037;27;45289;-49
2023/06/16 03:25:15;;;;;;;;;12.25;12.25;;;;;-143.57;100.00;65101.44;5099276;27;45290;-46
2023/06/16 03:27:41;;;;;;;;;15.25;12.50;;;;;-143.57;100.00;65101.44;5099281;27;45528;-46
2023/06/16 03:30:10;;;;;;;;;13.00;11.00;;;;;-143.57;100.00;65101.44;5098909;27;45439;-48
2023/06/16 03:32:37;;;;;;;;;12.40;11.20;;;;;-143.57;100.00;65101.44;5099142;27;45348;-48
2023/06/16 03:35:03;;;;;;;;;9.50;9.25;;;;;-143.57;100.00;65101.44;5099016;27;45442;-48
2023/06/16 03:37:30;;;;;;;;;12.75;11.25;;;;;-143.57;100.00;65101.44;5099413;27;45448;-47
2023/06/16 03:39:56;;;;;;;;;13.25;10.25;;;;;-143.57;100.00;65101.44;5098735;27;47185;-47
2023/06/16 03:42:21;;;;;;;;;12.25;11.00;;;;;-143.57;100.00;65101.44;5098819;27;45271;-46
2023/06/16 03:44:46;;;;;;;;;11.50;11.50;;;;;-143.57;100.00;65101.44;5099159;27;45324;-46
2023/06/16 03:47:13;;;;;;;;;10.00;9.75;;;;;-143.57;100.00;65101.44;5099066;27;45344;-47
2023/06/16 03:49:38;;;;;;;;;12.25;12.25;;;;;-143.57;100.00;65101.44;5098599;27;46654;-47
2023/06/16 03:52:04;;;;;;;;;12.00;11.75;;;;;-143.57;100.00;65101.44;5098721;27;45394;-46
2023/06/16 03:54:30;;;;;;;;;12.00;12.00;;;;;-143.57;100.00;65101.44;5098823;27;45329;-46
2023/06/16 03:56:55;;;;;;;;;13.75;11.00;;;;;-143.57;100.00;65101.44;5099092;27;45353;-46
2023/06/16 03:59:21;;;;;;;;;11.50;9.50;;;;;-143.57;100.00;65101.44;5097999;27;45425;-47
2023/06/16 04:01:46;;;;;;;;;14.25;12.00;;;;;-143.57;100.00;65101.44;5097106;27;45560;-45
2023/06/16 04:04:12;;;;;;;;;15.00;11.00;;;;;-143.57;100.00;65101.44;5097163;27;46005;-47
2023/06/16 04:06:38;;;;;;;;;16.00;13.00;;;;;-143.57;100.00;65101.44;5098697;27;45407;-49
2023/06/16 04:09:04;;;;;;;;;12.50;10.00;;;;;-143.57;100.00;65101.44;5098700;27;45471;-49
2023/06/16 04:11:30;;;;;;;;;12.75;12.75;;;;;-143.57;100.00;65101.44;5098440;27;45264;-48
2023/06/16 04:13:55;;;;;;;;;13.00;13.00;;;;;-143.57;100.00;65101.44;5098430;27;45459;-48
2023/06/16 04:16:20;;;;;;;;;12.25;11.25;;;;;-143.57;100.00;65101.44;5098674;27;45699;-47
2023/06/16 04:18:48;;;;;;;;;12.25;12.25;;;;;-143.57;100.00;65101.44;5098233;27;47106;-48
2023/06/16 04:21:14;;;;;;;;;14.75;13.50;;;;;-143.57;100.00;65101.44;5098394;27;45267;-44
2023/06/16 04:23:40;;;;;;;;;13.50;13.50;;;;;-143.57;100.00;65101.44;5098394;27;45366;-47
2023/06/16 04:26:07;;;;;;;;;12.50;12.50;;;;;-143.57;100.00;65101.44;5098327;27;45493;-48
2023/06/16 04:28:32;;;;;;;;;17.00;14.00;;;;;-143.57;100.00;65101.44;5098074;27;46345;-46
2023/06/16 04:31:00;;;;;;;;;12.25;11.00;;;;;-143.57;100.00;65101.44;5098094;27;45399;-45
2023/06/16 04:33:26;;;;;;;;;13.00;12.25;;;;;-143.57;100.00;65101.44;5098030;27;45375;-47
2023/06/16 04:35:52;;;;;;;;;17.00;14.75;;;;;-143.57;100.00;65101.44;5098541;27;45283;-46
2023/06/16 04:38:18;;;;;;;;;12.75;11.00;;;;;-143.57;100.00;65101.44;5097987;27;45522;-46
2023/06/16 04:40:43;;;;;;;;;12.50;12.00;;;;;-143.57;100.00;65101.44;5098106;27;45331;-46
2023/06/16 04:43:08;;;;;;;;;17.00;14.25;;;;;-143.57;100.00;65101.44;5097983;27;45502;-46
2023/06/16 04:45:34;;;;;;;;;11.00;10.75;;;;;-143.57;100.00;65101.44;5098305;27;45289;-44
2023/06/16 04:47:59;;;;;;;;;15.25;10.50;;;;;-143.57;100.00;65101.44;5097714;27;46910;-45
2023/06/16 04:50:25;;;;;;;;;9.75;9.75;;;;;-143.57;100.00;65101.44;5095914;27;45364;-45
2023/06/16 04:52:50;;;;;;;;;12.75;12.75;;;;;-143.57;100.00;65101.44;5098113;27;45308;-47
2023/06/16 04:55:16;;;;;;;;;15.00;13.75;;;;;-143.57;100.00;65101.44;5098156;27;45375;-43
2023/06/16 04:57:43;;;;;;;;;10.00;9.75;;;;;-143.57;100.00;65101.44;5096647;27;46351;-47
2023/06/16 05:00:10;;;;;;;;;13.20;12.80;;;;;-143.57;100.00;65101.44;5096925;27;45395;-46
2023/06/16 05:02:37;;;;;;;;;11.75;11.75;;;;;-143.57;100.00;65101.44;5097688;27;46093;-48
2023/06/16 05:05:05;;;;;;;;;13.00;12.75;;;;;-143.57;100.00;65101.44;5098131;27;45301;-43
2023/06/16 05:07:31;;;;;;;;;14.50;13.25;;;;;-143.57;100.00;65101.44;5097357;27;45430;-44
2023/06/16 05:09:57;;;;;;;;;16.50;14.75;;;;;-143.57;100.00;65101.44;5097525;27;45411;-45
2023/06/16 05:12:24;;;;;;;;;14.75;12.75;;;;;-143.57;100.00;65101.44;5099952;27;45382;-46
2023/06/16 05:14:50;;;;;;;;;13.75;13.75;;;;;-143.57;100.00;65101.44;5101388;27;45453;-46
2023/06/16 05:17:15;;;;;;;;;16.25;14.75;;;;;-143.57;100.00;65101.44;5101083;27;45915;-46
2023/06/16 05:19:40;;;;;;;;;14.25;13.25;;;;;-143.57;100.00;65101.44;5101359;27;45288;-44
2023/06/16 05:22:05;;;;;;;;;13.00;11.50;;;;;-143.57;100.00;65101.44;5101153;27;45209;-45
2023/06/16 05:24:31;;;;;;;;;15.00;14.50;;;;;-143.57;100.00;65101.44;5101517;27;45446;-44
2023/06/16 05:26:56;;;;;;;;;13.75;12.75;;;;;-143.57;100.00;65101.44;5101156;27;46584;-45
2023/06/16 05:29:22;;;;;;;;;13.50;12.50;;;;;-143.57;100.00;65101.44;5101163;27;45272;-45
2023/06/16 05:31:47;;;;;;;;;12.25;12.25;;;;;-143.57;100.00;65101.44;5101052;27;45244;-44
2023/06/16 05:34:12;;;;;;;;;13.00;11.25;;;;;-143.57;100.00;65101.44;5101211;27;45282;-44
2023/06/16 05:36:38;;;;;;;;;24.00;22.25;;;;;-143.57;100.00;65101.44;5100817;27;46329;-44
2023/06/16 05:39:03;;;;;;;;;23.50;22.50;;;;;-143.57;100.00;65101.44;5103131;27;45433;-45
2023/06/16 05:41:29;;;;;;;;;17.25;16.25;;;;;-143.57;100.00;65101.44;5105740;27;45379;-43
2023/06/16 05:43:55;;;;;;;;;16.50;15.75;;;;;-143.57;100.00;65101.44;5106189;27;45342;-47
2023/06/16 05:46:21;;;;;;;;;17.75;16.00;;;;;-143.57;100.00;65101.44;5105674;27;46989;-46
2023/06/16 05:48:46;;;;;;;;;15.50;15.50;;;;;-143.57;100.00;65101.44;5106404;27;45323;-46
2023/06/16 05:51:12;;;;;;;;;14.25;13.25;;;;;-143.57;100.00;65101.44;5102032;27;45769;-45
2023/06/16 05:53:37;;;;;;;;;15.00;13.00;;;;;-143.57;100.00;65101.44;5100829;27;45285;-45
2023/06/16 05:56:03;;;;;;;;;15.25;12.00;;;;;-143.57;100.00;65101.44;5100594;27;45450;-43
2023/06/16 05:58:28;;;;;;;;;15.50;10.25;;;;;-143.57;100.00;65101.44;5100613;27;45258;-46
2023/06/16 06:00:54;;;;;;;;;14.00;13.25;;;;;-143.57;100.00;65101.44;5100769;27;45350;-45
2023/06/16 06:03:19;;;;;;;;;12.75;11.75;;;;;-143.57;100.00;65101.44;5100392;27;45462;-46
2023/06/16 06:05:45;;;;;;;;;15.75;15.25;;;;;-143.57;100.00;65101.44;5099978;27;45213;-45
2023/06/16 06:08:10;;;;;;;;;15.50;13.50;;;;;-143.57;100.00;65101.44;5100308;27;45442;-45
2023/06/16 06:10:36;;;;;;;;;15.00;15.00;;;;;-143.57;100.00;65101.44;5100339;27;45315;-44
2023/06/16 06:13:04;;;;;;;;;15.50;13.50;;;;;-143.57;100.00;65101.44;5100610;27;45335;-45
2023/06/16 06:15:30;;;;;;;;;14.00;14.00;;;;;-143.57;100.00;65101.44;5100140;27;46115;-42
2023/06/16 06:17:55;;;;;;;;;15.50;14.50;;;;;-143.57;100.00;65101.44;5099815;27;45347;-44
2023/06/16 06:20:21;;;;;;;;;15.50;15.50;;;;;-143.57;100.00;65101.44;5100363;27;45254;-48
2023/06/16 06:22:46;;;;;;;;;19.50;13.50;;;;;-143.57;100.00;65101.44;5097312;27;45455;-46
2023/06/16 06:25:13;;;;;;;;;19.50;15.00;;;;;-143.57;100.00;65101.44;5090409;27;45463;-45
2023/06/16 06:27:39;;;;;;;;;14.50;14.25;;;;;-143.57;100.00;65101.44;5084902;27;45356;-45
2023/06/16 06:30:06;;;;;;;;;13.50;12.75;;;;;-143.57;100.00;65101.44;5079845;28;45474;-47
2023/06/16 06:32:32;;;;;;;;;16.25;12.75;;;;;-143.57;100.00;65101.44;5079455;28;45220;-46
2023/06/16 06:34:57;;;;;;;;;17.00;14.75;;;;;-143.57;100.00;65101.44;5079201;28;46327;-43
2023/06/16 06:37:29;;;;;;;;;16.00;14.00;;;;;-143.57;100.00;65101.44;5078653;28;45236;-44
2023/06/16 06:39:55;;;;;;;;;15.25;15.00;;;;;-143.57;100.00;65101.44;5079451;28;45380;-45
2023/06/16 06:42:20;;;;;;;;;15.25;13.25;;;;;-143.57;100.00;65101.44;5079262;28;45531;-47
2023/06/16 06:44:46;;;;;;;;;15.50;14.00;;;;;-143.57;100.00;65101.44;5079104;28;46122;-46
2023/06/16 06:47:11;;;;;;;;;10.00;9.00;;;;;-143.57;100.00;65101.44;5078277;27;45458;-48
2023/06/16 06:49:37;;;;;;;;;16.75;14.75;;;;;-143.57;100.00;65101.44;5079304;28;45278;-47
2023/06/16 06:52:02;;;;;;;;;17.00;15.25;;;;;-143.57;100.00;65101.44;5079337;28;45382;-46
2023/06/16 06:54:27;;;;;;;;;20.25;16.50;;;;;-143.57;100.00;65101.44;5078852;28;47099;-47
2023/06/16 06:56:53;;;;;;;;;14.00;12.75;;;;;-143.57;100.00;65101.44;5079084;28;45225;-48
2023/06/16 06:59:18;;;;;;;;;16.00;14.00;;;;;-143.57;100.00;65101.44;5078990;28;45363;-44
2023/06/16 07:01:43;;;;;;;;;12.25;12.25;;;;;-143.57;100.00;65101.44;5078933;28;45212;-44
2023/06/16 07:04:09;;;;;;;;;15.50;13.50;;;;;-143.57;100.00;65101.44;5078541;28;45438;-49
2023/06/16 07:06:35;;;;;;;;;17.00;15.00;;;;;-143.57;100.00;65101.44;5078711;28;45326;-47
2023/06/16 07:09:00;;;;;;;;;13.40;13.20;;;;;-143.57;100.00;65101.44;5079018;28;45384;-47
2023/06/16 07:11:25;;;;;;;;;17.00;16.00;;;;;-143.57;100.00;65101.44;5078782;28;45290;-48
2023/06/16 07:13:51;;;;;;;;;17.50;16.00;;;;;-143.57;100.00;65101.44;5078204;28;53482;-41
2023/06/16 07:16:16;;;;;;;;;11.00;11.00;;;;;-143.57;100.00;65101.44;5078585;28;45395;-49
2023/06/16 07:18:42;;;;;;;;;14.00;13.75;;;;;-143.57;100.00;65101.44;5078424;28;45465;-46
2023/06/16 07:21:07;;;;;;;;;13.75;13.75;;;;;-143.57;100.00;65101.44;5079113;28;45455;-46
2023/06/16 07:23:32;;;;;;;;;15.00;14.50;;;;;-143.57;100.00;65101.44;5078469;28;45290;-50
2023/06/16 07:25:58;;;;;;;;;17.75;14.25;;;;;-143.57;100.00;65101.44;5082905;27;48091;-45
2023/06/16 07:28:23;;;;;;;;;14.00;14.00;;;;;-143.57;100.00;65101.44;5099018;27;45339;-46
2023/06/16 07:30:49;;;;;;;;;16.00;15.00;;;;;-143.57;100.00;65101.44;5099191;27;45441;-45
2023/06/16 07:33:14;;;;;;;;;15.50;14.25;;;;;-143.57;100.00;65101.44;5098662;27;45303;-45
2023/06/16 07:35:39;;;;;;;;;19.25;15.75;;;;;-143.57;100.00;65101.44;5097795;27;45474;-47
2023/06/16 07:38:05;;;;;;;;;15.75;13.50;;;;;-143.57;100.00;65101.44;5098996;27;45526;-46
2023/06/16 07:40:30;;;;;;;;;16.50;12.00;;;;;-143.57;100.00;65101.44;5098922;27;45221;-46
2023/06/16 07:42:56;;;;;;;;;14.50;13.75;;;;;-143.57;100.00;65101.44;5098596;27;45323;-42
2023/06/16 07:45:22;;;;;;;;;14.75;13.00;;;;;-143.57;100.00;65101.44;5098725;27;45365;-47
2023/06/16 07:47:48;;;;;;;;;20.20;13.40;;;;;-143.57;100.00;65101.44;5098505;27;45319;-44
2023/06/16 07:50:13;;;;;;;;;17.25;13.50;;;;;-143.57;100.00;65101.44;5098909;27;45376;-43
2023/06/16 07:52:42;;;;;;;;;15.75;14.25;;;;;-143.57;100.00;65101.44;5098336;27;46393;-48
2023/06/16 07:55:09;;;;;;;;;13.80;13.00;;;;;-143.57;100.00;65101.44;5098375;27;45395;-45
2023/06/16 07:57:35;;;;;;;;;16.20;14.00;;;;;-143.57;100.00;65101.44;5094931;27;45380;-44
2023/06/16 08:00:00;;;;;;;;;20.25;19.50;;;;;-143.57;100.00;65101.44;5098894;27;45194;-43
2023/06/16 08:02:26;;;;;;;;;16.50;14.25;;;;;-143.57;100.00;65101.44;5098327;27;46069;-44
2023/06/16 08:04:51;;;;;;;;;18.00;13.00;;;;;-143.57;100.00;65101.44;5098200;27;45406;-42
2023/06/16 08:07:17;;;;;;;;;16.00;14.00;;;;;-143.57;100.00;65101.44;5097940;27;45366;-41
2023/06/16 08:09:42;;;;;;;;;17.75;14.25;;;;;-143.57;100.00;65101.44;5098592;27;45605;-42
2023/06/16 08:12:10;;;;;;;;;15.75;15.50;;;;;-143.57;100.00;65101.44;5098279;27;47049;-41
2023/06/16 08:14:36;;;;;;;;;75.67;60.67;;;;;-143.57;100.00;65101.44;5098248;27;45322;-41
2023/06/16 08:17:02;;;;;;;;;49.75;37.50;;;;;-143.57;100.00;65101.44;5098304;27;45338;-42
2023/06/16 08:19:27;;;;;;;;;18.25;15.75;;;;;-143.57;100.00;65101.44;5098006;27;45436;-42
2023/06/16 08:21:52;;;;;;;;;15.25;14.00;;;;;-143.57;100.00;65101.44;5098464;27;47170;-43
2023/06/16 08:24:18;;;;;;;;;14.75;14.50;;;;;-143.57;100.00;65101.44;5098204;27;45277;-42
2023/06/16 08:26:44;;;;;;;;;15.75;14.00;;;;;-143.57;100.00;65101.44;5098180;27;45376;-43
2023/06/16 08:29:10;;;;;;;;;15.20;14.00;;;;;-143.57;100.00;65101.44;5098652;27;45455;-42
2023/06/16 08:31:37;;;;;;;;;13.80;13.20;;;;;-143.57;100.00;65101.44;5097843;27;47569;-43
2023/06/16 08:34:02;;;;;;;;;16.00;13.00;;;;;-143.57;100.00;65101.44;5098024;27;45229;-43
2023/06/16 08:36:27;;;;;;;;;12.75;12.25;;;;;-143.57;100.00;65101.44;5098218;27;45392;-43
2023/06/16 08:38:53;;;;;;;;;14.75;12.75;;;;;-143.57;100.00;65101.44;5098655;27;45254;-44
2023/06/16 08:41:19;;;;;;;;;11.50;11.50;;;;;-143.57;100.00;65101.44;5098153;27;45298;-43
2023/06/16 08:43:49;;;;;;;;;12.80;12.80;;;;;-143.57;100.00;65101.44;5097821;27;45473;-42
2023/06/16 08:46:15;;;;;;;;;17.80;15.20;;;;;-143.57;100.00;65101.44;5097959;27;45319;-42
2023/06/16 08:48:41;;;;;;;;;15.00;12.00;;;;;-143.57;100.00;65101.44;5098259;27;45489;-44
2023/06/16 08:51:09;;;;;;;;;11.25;11.25;;;;;-143.57;100.00;65101.44;5097831;27;46993;-43
2023/06/16 08:53:36;;;;;;;;;11.40;11.40;;;;;-143.57;100.00;65101.44;5097953;27;45448;-43
2023/06/16 08:56:02;;;;;;;;;13.80;11.80;;;;;-143.57;100.00;65101.44;5098090;27;45418;-44
2023/06/16 08:58:29;;;;;;;;;12.00;10.40;;;;;-143.57;100.00;65101.44;5097989;27;45314;-43
2023/06/16 09:00:58;;;;;;;;;13.40;10.00;;;;;-143.57;100.00;65101.44;5097809;27;47140;-43
2023/06/16 09:03:25;;;;;;;;;9.80;9.80;;;;;-143.57;100.00;65101.44;5097628;27;45382;-43
2023/06/16 09:05:51;;;;;;;;;16.60;12.20;;;;;-143.57;100.00;65101.44;5097297;27;45328;-43
2023/06/16 09:08:17;;;;;;;;;10.00;9.75;;;;;-143.57;100.00;65101.44;5098038;27;45348;-43
2023/06/16 09:10:42;;;;;;;;;9.25;9.25;;;;;-143.57;100.00;65101.44;5097773;27;45497;-43
2023/06/16 09:13:08;;;;;;;;;8.25;8.25;;;;;-143.57;100.00;65101.44;5097793;27;45425;-43
2023/06/16 09:15:35;;;;;;;;;9.75;9.25;;;;;-143.57;100.00;65101.44;5097835;27;45418;-44
2023/06/16 09:18:06;;;;;;;;;10.80;10.60;;;;;-143.57;100.00;65101.44;5097958;27;45410;-44
2023/06/16 09:20:31;;;;;;;;;13.20;10.60;;;;;-143.57;100.00;65101.44;5097442;27;46448;-42
2023/06/16 09:22:59;;;;;;;;;8.25;8.25;;;;;-143.57;100.00;65101.44;5097538;27;45519;-44
2023/06/16 09:25:24;;;;;;;;;10.00;10.00;;;;;-143.57;100.00;65101.44;5097908;27;45384;-45
2023/06/16 09:27:55;;;;;;;;;8.50;7.75;;;;;-143.57;100.00;65101.44;5097713;27;45552;-42
2023/06/16 09:30:21;;;;;;;;;9.60;9.60;;;;;-143.57;100.00;65101.44;5097414;27;46305;-42
2023/06/16 09:32:53;;;;;;;;;7.50;6.00;;;;;-143.57;100.00;65101.44;5097023;27;45414;-41
2023/06/16 09:35:23;;;;;;;;;9.00;9.00;;;;;-143.57;100.00;65101.44;5096652;27;45192;-42
2023/06/16 09:37:54;;;;;;;;;8.00;8.00;;;;;-143.57;100.00;65101.44;5097810;27;45376;-42
2023/06/16 09:40:25;;;;;;;;;7.40;5.80;;;;;-143.57;100.00;65101.44;5097401;27;45337;-43
2023/06/16 09:42:50;;;;;;;;;12.40;8.60;;;;;-143.57;100.00;65101.44;5097346;27;45322;-43
2023/06/16 09:45:17;;;;;;;;;9.00;8.50;;;;;-143.57;100.00;65101.44;5097384;27;45293;-41
2023/06/16 09:47:47;;;;;;;;;11.60;8.80;;;;;-143.57;100.00;65101.44;5097814;27;45210;-44
2023/06/16 09:50:14;;;;;;;;;9.60;9.60;;;;;-143.57;100.00;65101.44;5097132;27;47041;-44
2023/06/16 09:52:42;;;;;;;;;12.00;10.80;;;;;-143.57;100.00;65101.44;5097138;27;45368;-43
2023/06/16 09:55:09;;;;;;;;;13.80;11.00;;;;;-143.57;100.00;65101.44;5097422;27;45423;-42
2023/06/16 09:57:37;;;;;;;;;8.60;8.60;;;;;-143.57;100.00;65101.44;5098587;27;45341;-42
2023/06/16 10:00:06;;;;;;;;;9.80;8.20;;;;;-143.57;100.00;65101.44;5082514;27;46254;-43
2023/06/16 10:02:33;;;;;;;;;7.20;7.00;;;;;-143.57;100.00;65101.44;5100738;27;45463;-41
2023/06/16 10:05:02;;;;;;;;;6.60;6.60;;;;;-143.57;100.00;65101.44;5100698;27;45244;-41
2023/06/16 10:07:30;;;;;;;;;8.80;8.00;;;;;-143.57;100.00;65101.44;5101172;27;45333;-44
2023/06/16 10:09:58;;;;;;;;;9.00;9.00;;;;;-143.57;100.00;65101.44;5100612;27;46842;-41
2023/06/16 10:12:24;;;;;;;;;9.20;6.80;;;;;-143.57;100.00;65101.44;5100532;27;45229;-43
2023/06/16 10:14:50;;;;;;;;;9.80;9.20;;;;;-143.57;100.00;65101.44;5100761;27;45430;-43
2023/06/16 10:17:18;;;;;;;;;9.00;8.25;;;;;-143.57;100.00;65101.44;5100765;27;45490;-44
2023/06/16 10:19:48;;;;;;;;;9.40;9.40;;;;;-143.57;100.00;65101.44;5100159;27;47188;-43
2023/06/16 10:22:14;;;;;;;;;13.60;10.60;;;;;-143.57;100.00;65101.44;5100605;27;45355;-46
2023/06/16 10:24:40;;;;;;;;;13.25;10.50;;;;;-143.57;100.00;65101.44;5100443;27;45276;-42
2023/06/16 10:27:10;;;;;;;;;12.50;10.75;;;;;-143.57;100.00;65101.44;5100874;27;45770;-42
2023/06/16 10:29:38;;;;;;;;;9.00;8.40;;;;;-143.57;100.00;65101.44;5100434;27;45353;-43
2023/06/16 10:32:10;;;;;;;;;9.80;9.80;;;;;-143.57;100.00;65101.44;5100286;27;45201;-43
2023/06/16 10:34:44;;;;;;;;;13.00;11.00;;;;;-143.57;100.00;65101.44;5100421;27;45407;-42
2023/06/16 10:37:10;;;;;;;;;11.80;11.80;;;;;-143.57;100.00;65101.44;5100380;27;45329;-42
2023/06/16 10:39:42;;;;;;;;;12.00;11.25;;;;;-143.57;100.00;65101.44;5100078;27;47216;-42
2023/06/16 10:42:11;;;;;;;;;12.20;11.80;;;;;-143.57;100.00;65101.44;5099937;27;45422;-42
2023/06/16 10:44:36;;;;;;;;;11.80;11.60;;;;;-143.57;100.00;65101.44;5100381;27;45284;-42
2023/06/16 10:47:05;;;;;;;;;10.25;8.00;;;;;-143.57;100.00;65101.44;5100382;27;45268;-42
2023/06/16 10:49:30;;;;;;;;;13.40;10.20;;;;;-143.57;100.00;65101.44;5099751;27;47334;-43
2023/06/16 10:51:59;;;;;;;;;13.25;12.00;;;;;-143.57;100.00;65101.44;5100090;27;45445;-43
2023/06/16 10:54:33;;;;;;;;;10.60;10.60;;;;;-143.57;100.00;65101.44;5100121;27;45323;-43